createdAt,value
2023-02-19T00:04:03.291Z,92846.81
2023-02-19T00:06:49.225Z,92853.69
2023-02-19T00:09:34.953Z,92844.19
2023-02-19T00:12:20.993Z,92851.16
2023-02-19T00:15:06.952Z,92847.84
2023-02-19T00:17:54.818Z,92850.19
2023-02-19T00:20:40.646Z,92853.38
2023-02-19T00:23:26.436Z,92847.41
2023-02-19T00:26:18.297Z,92850.66
2023-02-19T00:29:06.684Z,92839.25
2023-02-19T00:31:52.550Z,92848.69
2023-02-19T00:34:38.884Z,92852.34
2023-02-19T00:37:24.738Z,92842.25
2023-02-19T00:40:10.681Z,92839.88
2023-02-19T00:42:56.529Z,92843.44
2023-02-19T00:45:42.361Z,92840.53
2023-02-19T00:48:28.315Z,92843.50
2023-02-19T00:51:14.241Z,92851.50
2023-02-19T00:54:00.221Z,92851.69
2023-02-19T00:56:46.142Z,92862.09
2023-02-19T00:59:31.904Z,92858.41
2023-02-19T01:02:17.676Z,92850.91
2023-02-19T01:05:03.493Z,92847.69
2023-02-19T01:07:49.306Z,92845.84
2023-02-19T01:10:35.306Z,92836.94
2023-02-19T01:13:21.047Z,92836.75
2023-02-19T01:16:07.029Z,92843.47
2023-02-19T01:18:52.989Z,92838.78
2023-02-19T01:21:38.835Z,92840.78
2023-02-19T01:24:24.773Z,92836.44
2023-02-19T01:27:10.554Z,92833.88
2023-02-19T01:29:56.448Z,92841.50
2023-02-19T01:32:42.371Z,92830.28
2023-02-19T01:35:28.177Z,92829.94
2023-02-19T01:38:13.968Z,92828.56
2023-02-19T01:40:59.705Z,92824.13
2023-02-19T01:43:45.621Z,92822.47
2023-02-19T01:46:31.507Z,92822.06
2023-02-19T01:49:17.212Z,92822.97
2023-02-19T01:52:03.023Z,92816.22
2023-02-19T01:54:50.534Z,92813.31
2023-02-19T01:57:36.430Z,92812.56
2023-02-19T02:00:22.294Z,92810.06
2023-02-19T02:03:08.126Z,92805.75
2023-02-19T02:05:53.930Z,92807.66
2023-02-19T02:08:39.869Z,92802.00
2023-02-19T02:11:25.705Z,92805.69
2023-02-19T02:14:11.646Z,92803.22
2023-02-19T02:16:57.492Z,92790.78
2023-02-19T02:19:43.350Z,92780.72
2023-02-19T02:22:29.192Z,92782.72
2023-02-19T02:25:15.034Z,92774.41
2023-02-19T02:28:00.922Z,92775.03
2023-02-19T02:30:46.998Z,92779.72
2023-02-19T02:33:32.802Z,92778.75
2023-02-19T02:36:18.983Z,92777.44
2023-02-19T02:39:04.901Z,92785.19
2023-02-19T02:41:50.730Z,92778.53
2023-02-19T02:44:36.612Z,92770.81
2023-02-19T02:47:22.538Z,92772.75
2023-02-19T02:50:08.377Z,92777.56
2023-02-19T02:52:54.289Z,92777.31
2023-02-19T02:55:40.170Z,92770.00
2023-02-19T02:58:26.086Z,92762.00
2023-02-19T03:01:12.157Z,92763.44
2023-02-19T03:03:58.307Z,92765.91
2023-02-19T03:06:44.229Z,92774.69
2023-02-19T03:09:29.969Z,92763.28
2023-02-19T03:12:15.924Z,92765.34
2023-02-19T03:15:01.925Z,92764.44
2023-02-19T03:17:47.713Z,92762.56
2023-02-19T03:20:33.548Z,92756.44
2023-02-19T03:23:19.424Z,92755.00
2023-02-19T03:26:05.304Z,92750.81
2023-02-19T03:28:51.260Z,92741.81
2023-02-19T03:31:37.036Z,92739.66
2023-02-19T03:34:23.621Z,92738.53
2023-02-19T03:37:12.636Z,92735.78
2023-02-19T03:39:58.576Z,92743.56
2023-02-19T03:42:44.646Z,92747.06
2023-02-19T03:45:30.692Z,92742.28
2023-02-19T03:48:16.567Z,92742.47
2023-02-19T03:51:02.293Z,92749.09
2023-02-19T03:53:48.118Z,92752.09
2023-02-19T03:56:33.985Z,92756.13
2023-02-19T03:59:20.028Z,92773.13
2023-02-19T04:02:05.901Z,92786.78
2023-02-19T04:04:51.909Z,92779.22
2023-02-19T04:07:37.733Z,92777.56
2023-02-19T04:10:23.574Z,92793.72
2023-02-19T04:13:20.465Z,92811.75
2023-02-19T04:16:06.340Z,92801.16
2023-02-19T04:18:52.185Z,92816.56
2023-02-19T04:21:38.068Z,92817.16
2023-02-19T04:24:23.837Z,92816.84
2023-02-19T04:27:09.814Z,92824.28
2023-02-19T04:29:55.595Z,92828.66
2023-02-19T04:32:41.535Z,92842.97
2023-02-19T04:35:27.461Z,92844.06
2023-02-19T04:38:13.365Z,92844.09
2023-02-19T04:40:59.389Z,92833.50
2023-02-19T04:43:45.248Z,92832.13
2023-02-19T04:46:31.199Z,92831.78
2023-02-19T04:49:16.969Z,92838.94
2023-02-19T04:52:02.741Z,92851.31
2023-02-19T04:54:48.655Z,92857.22
2023-02-19T04:57:34.465Z,92850.88
2023-02-19T05:00:20.132Z,92820.06
2023-02-19T05:03:06.099Z,92801.56
2023-02-19T05:05:51.930Z,92797.81
2023-02-19T05:08:37.755Z,92798.66
2023-02-19T05:11:23.482Z,92794.81
2023-02-19T05:14:09.252Z,92792.44
2023-02-19T05:16:55.177Z,92776.50
2023-02-19T05:19:41.054Z,92759.31
2023-02-19T05:22:26.927Z,92760.81
2023-02-19T05:25:12.772Z,92751.00
2023-02-19T05:27:58.528Z,92747.91
2023-02-19T05:30:44.526Z,92734.50
2023-02-19T05:33:30.293Z,92723.88
2023-02-19T05:36:16.210Z,92726.06
2023-02-19T05:39:02.075Z,92717.97
2023-02-19T05:41:48.011Z,92736.06
2023-02-19T05:44:33.934Z,92737.53
2023-02-19T05:47:19.779Z,92739.09
2023-02-19T05:50:05.727Z,92744.81
2023-02-19T05:52:51.581Z,92751.09
2023-02-19T05:55:37.389Z,92759.41
2023-02-19T05:58:23.203Z,92766.56
2023-02-19T06:01:09.420Z,92763.31
2023-02-19T06:03:57.406Z,92770.69
2023-02-19T06:06:43.653Z,92773.03
2023-02-19T06:09:29.541Z,92785.22
2023-02-19T06:12:15.375Z,92795.47
2023-02-19T06:15:01.229Z,92797.69
2023-02-19T06:17:46.997Z,92792.97
2023-02-19T06:20:32.846Z,92796.47
2023-02-19T06:23:18.806Z,92802.97
2023-02-19T06:26:05.114Z,92825.72
2023-02-19T06:28:51.024Z,92837.34
2023-02-19T06:31:36.932Z,92857.53
2023-02-19T06:34:22.917Z,92850.13
2023-02-19T06:37:08.803Z,92846.41
2023-02-19T06:39:54.633Z,92833.31
2023-02-19T06:42:40.513Z,92829.53
2023-02-19T06:45:26.385Z,92822.25
2023-02-19T06:48:12.314Z,92825.28
2023-02-19T06:50:58.197Z,92831.50
2023-02-19T06:53:44.149Z,92835.56
2023-02-19T06:56:29.992Z,92832.84
2023-02-19T06:59:15.913Z,92834.81
2023-02-19T07:02:01.630Z,92838.03
2023-02-19T07:04:47.704Z,92838.16
2023-02-19T07:07:33.612Z,92853.44
2023-02-19T07:10:19.610Z,92863.72
2023-02-19T07:13:05.430Z,92865.34
2023-02-19T07:15:52.340Z,92873.91
2023-02-19T07:18:38.293Z,92876.91
2023-02-19T07:21:24.238Z,92872.88
2023-02-19T07:24:09.988Z,92873.06
2023-02-19T07:26:55.961Z,92877.66
2023-02-19T07:29:41.897Z,92889.09
2023-02-19T07:32:27.890Z,92891.06
2023-02-19T07:35:13.762Z,92896.22
2023-02-19T07:37:59.513Z,92911.28
2023-02-19T07:40:45.480Z,92917.97
2023-02-19T07:43:31.271Z,92910.63
2023-02-19T07:46:17.031Z,92913.06
2023-02-19T07:49:02.878Z,92913.66
2023-02-19T07:51:48.752Z,92910.34
2023-02-19T07:54:34.583Z,92907.28
2023-02-19T07:57:20.457Z,92904.22
2023-02-19T08:00:06.364Z,92905.56
2023-02-19T08:02:52.150Z,92915.44
2023-02-19T08:05:38.070Z,92913.91
2023-02-19T08:08:23.782Z,92916.72
2023-02-19T08:11:10.122Z,92914.78
2023-02-19T08:13:56.204Z,92914.13
2023-02-19T08:16:43.503Z,92915.69
2023-02-19T08:19:29.728Z,92921.25
2023-02-19T08:22:15.527Z,92923.63
2023-02-19T08:25:01.407Z,92935.94
2023-02-19T08:27:47.275Z,92946.16
2023-02-19T08:30:33.211Z,92941.53
2023-02-19T08:33:19.506Z,92931.75
2023-02-19T08:36:05.371Z,92930.97
2023-02-19T08:38:51.301Z,92932.25
2023-02-19T08:41:37.163Z,92958.75
2023-02-19T08:44:23.032Z,92954.50
2023-02-19T08:47:09.031Z,92949.97
2023-02-19T08:49:55.069Z,92952.97
2023-02-19T08:52:40.779Z,92952.44
2023-02-19T08:55:26.721Z,92947.75
2023-02-19T08:58:12.590Z,92957.84
2023-02-19T09:00:58.450Z,92960.84
2023-02-19T09:03:44.452Z,92964.63
2023-02-19T09:06:30.257Z,92959.19
2023-02-19T09:09:16.171Z,92960.19
2023-02-19T09:12:02.109Z,92968.06
2023-02-19T09:14:47.842Z,92965.47
2023-02-19T09:17:33.715Z,92955.72
2023-02-19T09:20:19.594Z,92967.81
2023-02-19T09:23:05.463Z,92956.31
2023-02-19T09:25:51.517Z,92952.22
2023-02-19T09:28:37.377Z,92952.22
2023-02-19T09:31:23.534Z,92960.44
2023-02-19T09:34:09.614Z,92959.47
2023-02-19T09:36:55.562Z,92959.47
2023-02-19T09:39:41.556Z,92963.00
2023-02-19T09:42:27.439Z,92958.34
2023-02-19T09:45:13.342Z,92961.59
2023-02-19T09:47:59.308Z,92956.41
2023-02-19T09:50:45.188Z,92957.72
2023-02-19T09:53:31.018Z,92962.88
2023-02-19T09:56:17.100Z,92957.09
2023-02-19T09:59:02.917Z,92962.44
2023-02-19T10:01:49.047Z,92969.31
2023-02-19T10:04:34.842Z,92971.06
2023-02-19T10:07:20.836Z,92966.59
2023-02-19T10:10:06.755Z,92966.13
2023-02-19T10:12:52.593Z,92970.88
2023-02-19T10:15:38.529Z,92968.94
2023-02-19T10:18:24.485Z,92971.84
2023-02-19T10:21:10.564Z,92969.94
2023-02-19T10:23:56.701Z,92965.06
2023-02-19T10:26:42.621Z,92962.34
2023-02-19T10:29:28.502Z,92967.81
2023-02-19T10:32:14.523Z,92978.06
2023-02-19T10:35:00.370Z,92975.69
2023-02-19T10:37:46.283Z,92980.06
2023-02-19T10:40:32.107Z,92980.38
2023-02-19T10:43:17.802Z,92977.72
2023-02-19T10:46:03.624Z,92964.53
2023-02-19T10:48:49.426Z,92968.72
2023-02-19T10:51:35.368Z,92968.72
2023-02-19T10:54:21.256Z,92973.13
2023-02-19T10:57:07.252Z,92964.56
2023-02-19T10:59:53.149Z,92962.69
2023-02-19T11:02:39.006Z,92970.28
2023-02-19T11:05:24.996Z,92978.59
2023-02-19T11:08:10.881Z,92978.66
2023-02-19T11:10:56.744Z,92973.06
2023-02-19T11:13:42.560Z,92971.28
2023-02-19T11:16:28.578Z,92971.34
2023-02-19T11:19:14.555Z,92960.84
2023-02-19T11:22:00.373Z,92953.50
2023-02-19T11:24:46.254Z,92947.19
2023-02-19T11:27:32.055Z,92949.53
2023-02-19T11:30:17.953Z,92939.50
2023-02-19T11:33:03.830Z,92942.06
2023-02-19T11:35:51.861Z,92933.50
2023-02-19T11:38:37.696Z,92929.44
2023-02-19T11:41:23.660Z,92920.03
2023-02-19T11:44:09.373Z,92924.59
2023-02-19T11:46:55.304Z,92931.31
2023-02-19T11:49:41.212Z,92918.66
2023-02-19T11:52:27.176Z,92914.78
2023-02-19T11:55:13.025Z,92901.00
2023-02-19T11:57:58.986Z,92899.47
2023-02-19T12:00:44.758Z,92907.22
2023-02-19T12:03:30.693Z,92900.81
2023-02-19T12:06:16.567Z,92899.56
2023-02-19T12:09:02.482Z,92887.81
2023-02-19T12:11:48.517Z,92880.47
2023-02-19T12:14:34.298Z,92887.09
2023-02-19T12:17:20.201Z,92887.13
2023-02-19T12:20:06.022Z,92881.63
2023-02-19T12:22:51.965Z,92887.06
2023-02-19T12:25:37.898Z,92882.91
2023-02-19T12:28:23.878Z,92882.00
2023-02-19T12:31:09.705Z,92881.44
2023-02-19T12:33:55.470Z,92882.97
2023-02-19T12:36:41.348Z,92887.75
2023-02-19T12:39:27.198Z,92870.69
2023-02-19T12:42:13.099Z,92876.09
2023-02-19T12:44:58.877Z,92884.69
2023-02-19T12:47:45.295Z,92889.00
2023-02-19T12:50:31.202Z,92893.56
2023-02-19T12:53:17.026Z,92884.19
2023-02-19T12:56:02.975Z,92881.78
2023-02-19T12:58:48.756Z,92874.66
2023-02-19T13:01:34.789Z,92865.22
2023-02-19T13:04:20.671Z,92867.03
2023-02-19T13:07:06.532Z,92865.88
2023-02-19T13:09:52.454Z,92862.50
2023-02-19T13:12:38.287Z,92854.09
2023-02-19T13:15:24.140Z,92840.25
2023-02-19T13:18:09.994Z,92851.34
2023-02-19T13:20:55.702Z,92852.78
2023-02-19T13:23:41.574Z,92855.47
2023-02-19T13:26:27.607Z,92857.44
2023-02-19T13:29:13.395Z,92853.56
2023-02-19T13:31:59.382Z,92849.16
2023-02-19T13:34:45.350Z,92844.72
2023-02-19T13:37:31.141Z,92854.84
2023-02-19T13:40:17.001Z,92869.03
2023-02-19T13:43:02.859Z,92866.16
2023-02-19T13:45:48.924Z,92866.59
2023-02-19T13:48:35.291Z,92851.56
2023-02-19T13:51:21.107Z,92848.66
2023-02-19T13:54:07.162Z,92847.81
2023-02-19T13:56:52.874Z,92850.38
2023-02-19T13:59:38.774Z,92847.13
2023-02-19T14:02:24.724Z,92852.75
2023-02-19T14:05:12.854Z,92861.34
2023-02-19T14:07:58.886Z,92851.00
2023-02-19T14:10:44.710Z,92840.03
2023-02-19T14:13:30.610Z,92835.25
2023-02-19T14:16:16.431Z,92825.50
2023-02-19T14:19:02.425Z,92824.34
2023-02-19T14:21:48.234Z,92825.22
2023-02-19T14:24:34.122Z,92821.50
2023-02-19T14:27:20.071Z,92801.72
2023-02-19T14:30:06.305Z,92800.34
2023-02-19T14:33:07.695Z,92812.22
2023-02-19T14:35:55.728Z,92815.88
2023-02-19T14:38:41.629Z,92822.09
2023-02-19T14:41:27.474Z,92812.56
2023-02-19T14:44:13.270Z,92807.78
2023-02-19T14:46:59.073Z,92819.16
2023-02-19T14:49:45.014Z,92834.84
2023-02-19T14:52:30.817Z,92848.78
2023-02-19T14:55:16.731Z,92857.34
2023-02-19T14:58:02.608Z,92864.47
2023-02-19T15:00:48.462Z,92863.69
2023-02-19T15:03:34.506Z,92861.78
2023-02-19T15:06:20.249Z,92864.22
2023-02-19T15:09:06.232Z,92863.28
2023-02-19T15:11:52.078Z,92855.84
2023-02-19T15:14:38.070Z,92850.31
2023-02-19T15:17:23.865Z,92858.81
2023-02-19T15:20:09.639Z,92859.38
2023-02-19T15:22:55.634Z,92848.38
2023-02-19T15:25:41.489Z,92848.81
2023-02-19T15:28:27.368Z,92855.41
2023-02-19T15:31:13.661Z,92865.25
2023-02-19T15:33:59.720Z,92869.41
2023-02-19T15:36:45.576Z,92870.47
2023-02-19T15:39:31.470Z,92870.72
2023-02-19T15:42:17.452Z,92863.28
2023-02-19T15:45:03.435Z,92865.63
2023-02-19T15:47:49.245Z,92873.50
2023-02-19T15:50:35.146Z,92882.06
2023-02-19T15:53:21.205Z,92881.19
2023-02-19T15:56:06.935Z,92889.47
2023-02-19T15:58:52.893Z,92888.94
2023-02-19T16:01:38.661Z,92893.94
2023-02-19T16:04:24.410Z,92893.31
2023-02-19T16:07:10.300Z,92887.72
2023-02-19T16:09:56.131Z,92894.09
2023-02-19T16:12:42.205Z,92900.72
2023-02-19T16:15:28.219Z,92901.19
2023-02-19T16:18:13.997Z,92908.13
2023-02-19T16:20:59.744Z,92898.44
2023-02-19T16:23:45.718Z,92901.25
2023-02-19T16:26:31.562Z,92907.44
2023-02-19T16:29:17.484Z,92916.78
2023-02-19T16:32:03.449Z,92922.88
2023-02-19T16:34:49.774Z,92917.72
2023-02-19T16:37:35.657Z,92929.47
2023-02-19T16:40:21.599Z,92924.44
2023-02-19T16:43:07.521Z,92929.34
2023-02-19T16:45:53.316Z,92932.28
2023-02-19T16:48:39.084Z,92940.47
2023-02-19T16:51:25.038Z,92942.41
2023-02-19T16:54:11.024Z,92962.38
2023-02-19T16:56:56.829Z,92960.91
2023-02-19T16:59:42.721Z,92946.47
2023-02-19T17:02:28.656Z,92953.06
2023-02-19T17:05:14.547Z,92961.13
2023-02-19T17:08:00.298Z,92955.25
2023-02-19T17:10:46.106Z,92961.72
2023-02-19T17:13:32.006Z,92964.19
2023-02-19T17:16:18.030Z,92970.34
2023-02-19T17:19:03.920Z,92973.78
2023-02-19T17:21:49.870Z,92972.88
2023-02-19T17:24:35.780Z,92970.28
2023-02-19T17:27:21.645Z,92975.38
2023-02-19T17:30:07.584Z,92990.38
2023-02-19T17:32:53.401Z,92993.22
2023-02-19T17:35:39.340Z,92995.50
2023-02-19T17:38:25.241Z,92991.97
2023-02-19T17:41:11.455Z,92987.84
2023-02-19T17:43:57.498Z,92983.63
2023-02-19T17:46:43.307Z,92986.88
2023-02-19T17:49:29.099Z,93003.50
2023-02-19T17:52:14.794Z,93006.03
2023-02-19T17:55:00.652Z,93006.69
2023-02-19T17:57:46.643Z,93006.28
2023-02-19T18:00:32.457Z,93011.00
2023-02-19T18:03:18.355Z,93013.50
2023-02-19T18:06:04.217Z,93022.88
2023-02-19T18:08:50.091Z,93021.38
2023-02-19T18:11:37.392Z,93016.78
2023-02-19T18:14:23.429Z,93016.78
2023-02-19T18:17:09.357Z,93025.06
2023-02-19T18:19:55.295Z,93033.22
2023-02-19T18:22:41.143Z,93031.56
2023-02-19T18:25:27.197Z,93035.69
2023-02-19T18:28:13.049Z,93033.81
2023-02-19T18:30:59.009Z,93027.59
2023-02-19T18:33:45.335Z,93033.25
2023-02-19T18:36:31.181Z,93031.91
2023-02-19T18:39:17.067Z,93021.25
2023-02-19T18:42:02.937Z,93017.34
2023-02-19T18:44:48.737Z,93020.41
2023-02-19T18:47:34.690Z,93019.63
2023-02-19T18:50:20.583Z,93017.19
2023-02-19T18:53:06.514Z,93008.28
2023-02-19T18:55:52.428Z,93007.78
2023-02-19T18:58:38.213Z,93011.94
2023-02-19T19:01:24.241Z,93013.31
2023-02-19T19:04:10.100Z,93010.41
2023-02-19T19:06:55.919Z,93006.34
2023-02-19T19:09:41.856Z,93010.16
2023-02-19T19:12:27.737Z,93013.69
2023-02-19T19:15:13.622Z,93014.59
2023-02-19T19:17:59.921Z,93017.72
2023-02-19T19:20:47.773Z,93014.06
2023-02-19T19:23:33.677Z,93016.22
2023-02-19T19:26:19.687Z,93014.69
2023-02-19T19:29:05.548Z,93028.63
2023-02-19T19:31:51.587Z,93039.75
2023-02-19T19:34:37.444Z,93033.75
2023-02-19T19:37:23.206Z,93039.38
2023-02-19T19:40:09.191Z,93031.53
2023-02-19T19:42:55.030Z,93028.13
2023-02-19T19:45:41.045Z,93016.81
2023-02-19T19:48:26.933Z,93012.41
2023-02-19T19:51:12.916Z,93001.75
2023-02-19T19:53:58.909Z,93006.56
2023-02-19T19:56:44.730Z,93011.47
2023-02-19T19:59:30.680Z,93004.44
2023-02-19T20:02:16.672Z,92999.06
2023-02-19T20:05:02.610Z,92996.69
2023-02-19T20:07:48.605Z,93010.94
2023-02-19T20:10:34.686Z,93013.28
2023-02-19T20:13:20.538Z,93020.84
2023-02-19T20:16:06.579Z,93033.44
2023-02-19T20:18:52.437Z,93037.47
2023-02-19T20:21:38.420Z,93029.56
2023-02-19T20:24:24.359Z,93034.31
2023-02-19T20:27:10.428Z,93026.03
2023-02-19T20:29:56.251Z,93029.97
2023-02-19T20:32:44.084Z,93028.50
2023-02-19T20:35:29.978Z,93033.13
2023-02-19T20:38:15.804Z,93035.84
2023-02-19T20:41:01.583Z,93044.75
2023-02-19T20:43:47.728Z,93054.44
2023-02-19T20:46:35.623Z,93072.09
2023-02-19T20:49:21.515Z,93079.28
2023-02-19T20:52:07.444Z,93070.44
2023-02-19T20:54:53.429Z,93072.28
2023-02-19T20:57:39.289Z,93079.16
2023-02-19T21:00:25.130Z,93084.97
2023-02-19T21:03:11.036Z,93076.72
2023-02-19T21:05:56.847Z,93069.75
2023-02-19T21:08:42.797Z,93055.88
2023-02-19T21:11:28.616Z,93042.38
2023-02-19T21:14:14.565Z,93042.97
2023-02-19T21:17:00.647Z,93048.94
2023-02-19T21:19:46.999Z,93042.66
2023-02-19T21:22:33.937Z,93046.00
2023-02-19T21:25:20.044Z,93055.13
2023-02-19T21:28:05.862Z,93066.16
2023-02-19T21:30:51.747Z,93073.00
2023-02-19T21:33:37.578Z,93076.56
2023-02-19T21:36:23.538Z,93077.69
2023-02-19T21:39:09.465Z,93083.09
2023-02-19T21:41:55.343Z,93086.31
2023-02-19T21:44:43.025Z,93093.25
2023-02-19T21:47:29.123Z,93096.22
2023-02-19T21:50:14.984Z,93095.66
2023-02-19T21:53:00.985Z,93106.91
2023-02-19T21:55:56.610Z,93103.06
2023-02-19T21:58:44.461Z,93103.28
2023-02-19T22:01:30.323Z,93099.88
2023-02-19T22:04:16.065Z,93096.22
2023-02-19T22:07:01.942Z,93096.41
2023-02-19T22:09:47.676Z,93098.91
2023-02-19T22:12:33.481Z,93094.97
2023-02-19T22:15:19.542Z,93094.09
2023-02-19T22:18:05.577Z,93095.00
2023-02-19T22:20:51.794Z,93093.53
2023-02-19T22:23:37.678Z,93087.94
2023-02-19T22:26:23.524Z,93079.06
2023-02-19T22:29:09.480Z,93074.09
2023-02-19T22:31:55.356Z,93076.00
2023-02-19T22:34:41.697Z,93074.75
2023-02-19T22:37:27.626Z,93074.25
2023-02-19T22:40:16.007Z,93071.66
2023-02-19T22:43:01.883Z,93080.59
2023-02-19T22:45:47.856Z,93080.34
2023-02-19T22:48:35.743Z,93088.72
2023-02-19T22:51:21.887Z,93087.88
2023-02-19T22:54:07.886Z,93088.91
2023-02-19T22:56:53.743Z,93090.06
2023-02-19T22:59:39.548Z,93087.66
2023-02-19T23:02:25.396Z,93092.59
2023-02-19T23:05:11.267Z,93077.91
2023-02-19T23:07:57.148Z,93072.09
2023-02-19T23:10:42.950Z,93068.63
2023-02-19T23:13:28.983Z,93072.88
2023-02-19T23:16:15.691Z,93077.88
2023-02-19T23:19:01.927Z,93068.84
2023-02-19T23:21:48.004Z,93075.91
2023-02-19T23:24:33.800Z,93079.53
2023-02-19T23:27:19.593Z,93063.94
2023-02-19T23:30:05.464Z,93082.13
2023-02-19T23:32:51.329Z,93077.03
2023-02-19T23:35:37.275Z,93085.44
2023-02-19T23:38:23.199Z,93079.34
2023-02-19T23:41:09.049Z,93079.75
2023-02-19T23:43:54.902Z,93078.78
2023-02-19T23:46:40.701Z,93085.44
2023-02-19T23:49:26.517Z,93088.31
2023-02-19T23:52:12.482Z,93089.28
2023-02-19T23:54:58.381Z,93091.69
2023-02-19T23:57:45.357Z,93093.03
